Login to view products. 
Wednesday, August 23, 2017 (17:38 UTC)
Abu Dhabi International Airport
Last Updated: 23-Aug-2017 (17:38Z)
Wind Dir/Speed: N at 12 kt
Temperature: 34.9°C
Rel. Humidity: 57 %
Pressure: 1000.7 hPa
Visibility: 10000 m
ACTUALS
  • METAR OMAA 231700Z 36012KT CAVOK 36/25 Q1000 NOSIG
  • TAF OMAA 231700Z 2318/2500 01010KT 8000 NSC BECMG 2320/2322 10005KT BECMG 2400/2402 16015KT PROB30 TEMPO 2402/2405 4000 DU BECMG 2410/2412 35013KT BECMG 2418/2420 06005KT=